Time;durP1;ratioP1;P1;durP2;ratioP2;P2;SDS_P1;SDS_P2;PMS_P1;PMS_P2;Temp;Humidity;BMP_temperature;BMP_pressure;BME280_temperature;BME280_humidity;BME280_pressure;Samples;Min_cycle;Max_cycle;Signal;HPM_P1;HPM_P2
2023/10/22 00:26:00;711831.00;2.37;1227.76;70397.00;0.23;122.45;;;;;15.30;1.00;;;;;;2293491;40;3455;-89
2023/10/22 01:18:54;195520.00;0.65;338.21;0.00;0.00;0.62;;;;;16.00;1.00;;;;;;2261270;61;1463;-85
2023/10/22 01:23:54;628922.00;2.10;1084.19;0.00;0.00;0.62;;;;;15.60;1.00;;;;;;2295985;40;3670;-87
2023/10/22 01:58:53;438673.00;1.46;756.30;0.00;0.00;0.62;;;;;16.20;1.00;;;;;;2277593;61;1347;-89
2023/10/22 02:13:44;588200.00;1.96;1013.85;84044.00;0.28;146.02;;;;;15.40;1.00;;;;;;2278388;61;2008;-86
2023/10/22 02:16:16;259481.00;0.86;448.26;82330.00;0.27;143.06;;;;;15.90;1.00;;;;;;2293238;40;3613;-87
2023/10/22 02:18:42;365586.00;1.22;630.65;90708.00;0.30;157.53;;;;;16.10;1.00;;;;;;2276312;61;1707;-85
2023/10/22 02:21:19;296270.00;0.99;511.51;85195.00;0.28;148.01;;;;;15.90;1.00;;;;;;2276384;61;1644;-87
2023/10/22 02:26:14;718318.00;2.39;1239.02;84897.00;0.28;147.50;;;;;16.00;1.00;;;;;;2278003;61;1403;-88
2023/10/22 02:28:41;552807.00;1.84;952.80;80440.00;0.27;139.80;;;;;16.00;1.00;;;;;;2276315;61;1529;-89
2023/10/22 02:31:10;475692.00;1.59;819.98;85140.00;0.28;147.92;;;;;15.70;1.00;;;;;;2276354;61;1619;-86
2023/10/22 02:33:42;304324.00;1.01;525.35;82698.00;0.28;143.70;;;;;15.60;1.00;;;;;;2276514;61;1997;-87
2023/10/22 02:36:10;744994.00;2.48;1285.35;79588.00;0.27;138.33;;;;;16.00;1.00;;;;;;2276321;61;787;-89
2023/10/22 02:38:37;379087.00;1.26;653.86;117820.00;0.39;204.32;;;;;15.90;1.00;;;;;;2276326;61;1996;-86
2023/10/22 02:41:04;766147.00;2.55;1322.15;88172.00;0.29;153.15;;;;;15.40;1.00;;;;;;2276350;61;1463;-88
2023/10/22 02:43:31;601122.00;2.00;1036.16;122048.00;0.41;211.61;;;;;15.10;1.00;;;;;;2276313;61;1421;-86
2023/10/22 02:45:58;831275.00;2.77;1435.72;127759.00;0.43;221.46;;;;;15.20;1.00;;;;;;2276405;61;1619;-86
2023/10/22 02:48:25;584869.00;1.95;1008.10;84459.00;0.28;146.74;;;;;15.40;1.00;;;;;;2276310;61;1018;-87
2023/10/22 02:50:54;792105.00;2.64;1367.36;110702.00;0.37;192.04;;;;;15.20;1.00;;;;;;2276291;61;1468;-86
2023/10/22 02:53:22;495538.00;1.65;854.14;91446.00;0.30;158.80;;;;;15.20;1.00;;;;;;2276265;61;2030;-88
2023/10/22 02:55:59;666519.00;2.22;1149.23;113220.00;0.38;196.39;;;;;15.40;1.00;;;;;;2276276;61;1718;-88
2023/10/22 02:58:26;820238.00;2.73;1416.44;0.00;0.00;0.62;;;;;15.60;1.00;;;;;;2276279;61;1490;-86
2023/10/22 03:00:55;312512.00;1.04;539.43;0.00;0.00;0.62;;;;;15.00;1.00;;;;;;2276379;61;1537;-86
2023/10/22 03:03:24;494852.00;1.65;852.96;0.00;0.00;0.62;;;;;15.40;1.00;;;;;;2276545;61;1352;-88
2023/10/22 03:05:51;392876.00;1.31;677.56;0.00;0.00;0.62;;;;;15.30;1.00;;;;;;2276573;61;1552;-88
2023/10/22 03:08:19;399658.00;1.33;689.22;0.00;0.00;0.62;;;;;15.20;1.00;;;;;;2276474;61;1703;-86
2023/10/22 03:10:48;468068.00;1.56;806.87;0.00;0.00;0.62;;;;;15.40;1.00;;;;;;2276566;61;1466;-87
2023/10/22 03:13:15;237297.00;0.79;410.10;0.00;0.00;0.62;;;;;15.30;1.00;;;;;;2276301;61;2058;-88
2023/10/22 03:15:42;466078.00;1.55;803.44;9072.00;0.03;16.34;;;;;15.80;1.00;;;;;;2276561;61;1177;-87
2023/10/22 03:18:12;378808.00;1.26;653.38;0.00;0.00;0.62;;;;;16.10;1.00;;;;;;2276611;61;991;-87
2023/10/22 03:20:39;294564.00;0.98;508.58;0.00;0.00;0.62;;;;;16.30;1.00;;;;;;2276596;61;1611;-89
2023/10/22 03:23:06;386152.00;1.29;666.00;0.00;0.00;0.62;;;;;16.50;1.00;;;;;;2276556;61;1389;-88
2023/10/22 03:25:35;337614.00;1.13;582.57;0.00;0.00;0.62;;;;;16.50;1.00;;;;;;2276559;61;1011;-87
2023/10/22 03:28:02;377726.00;1.26;651.52;0.00;0.00;0.62;;;;;16.30;1.00;;;;;;2276537;61;1003;-89
2023/10/22 03:30:29;519658.00;1.73;895.68;87419.00;0.29;151.85;;;;;16.00;1.00;;;;;;2276496;61;1180;-87
2023/10/22 03:32:58;560529.00;1.87;966.11;83025.00;0.28;144.26;;;;;15.80;1.00;;;;;;2276535;61;1479;-87
2023/10/22 03:35:25;303904.00;1.01;524.63;79959.00;0.27;138.97;;;;;15.20;1.00;;;;;;2276551;61;1944;-88
2023/10/22 03:37:52;429919.00;1.43;741.25;81667.00;0.27;141.92;;;;;15.40;1.00;;;;;;2276637;61;881;-87
2023/10/22 03:40:19;117500824.00;391.67;65713148.00;84536.00;0.28;146.87;;;;;15.40;1.00;;;;;;2276450;61;914;-87
2023/10/22 03:42:49;415749.00;1.39;716.88;86539.00;0.29;150.33;;;;;15.20;1.00;;;;;;2276523;61;1480;-87
2023/10/22 03:45:18;329478.00;1.10;568.59;84613.00;0.28;147.00;;;;;15.00;1.00;;;;;;2276511;61;1611;-88
2023/10/22 03:47:45;446698.00;1.49;770.10;90071.00;0.30;156.43;;;;;14.50;1.00;;;;;;2276428;61;1614;-88
2023/10/22 03:50:12;445051.00;1.48;767.27;79470.00;0.26;138.12;;;;;14.90;1.00;;;;;;2276527;61;954;-88
2023/10/22 03:52:39;433360.00;1.44;747.16;179046.00;0.60;309.85;;;;;15.00;1.00;;;;;;2276559;61;1415;-88
2023/10/22 03:55:09;369281.00;1.23;637.00;85126.00;0.28;147.89;;;;;15.20;1.00;;;;;;2276343;61;1907;-88
2023/10/22 03:57:41;477531.00;1.59;823.15;81819.00;0.27;142.18;;;;;15.00;1.00;;;;;;2276528;61;2313;-88
2023/10/22 04:00:14;669296.00;2.23;1154.03;88409.00;0.29;153.56;;;;;15.10;1.00;;;;;;2276567;61;1126;-87
2023/10/22 04:02:44;461918.00;1.54;796.28;0.00;0.00;0.62;;;;;15.00;1.00;;;;;;2276387;61;1569;-88
2023/10/22 04:05:13;626921.00;2.09;1080.73;0.00;0.00;0.62;;;;;15.00;1.00;;;;;;2276332;61;1521;-89
2023/10/22 04:07:40;525039.00;1.75;904.95;0.00;0.00;0.62;;;;;14.90;1.00;;;;;;2276414;61;1491;-87
2023/10/22 04:10:10;638425.00;2.13;1100.62;56446.00;0.19;98.33;;;;;14.80;1.00;;;;;;2276443;61;1022;-89
2023/10/22 04:12:39;397795.00;1.33;686.01;0.00;0.00;0.62;;;;;14.70;1.00;;;;;;2276416;61;1577;-87
2023/10/22 04:15:10;359463.00;1.20;620.13;0.00;0.00;0.62;;;;;14.80;1.00;;;;;;2276384;61;1990;-88
2023/10/22 04:17:39;553386.00;1.84;953.80;4137.00;0.01;7.79;;;;;15.20;1.00;;;;;;2276446;61;919;-88
2023/10/22 04:20:07;456975.00;1.52;787.78;0.00;0.00;0.62;;;;;15.10;1.00;;;;;;2276471;61;1136;-88
2023/10/22 04:22:34;435481.00;1.45;750.81;0.00;0.00;0.62;;;;;15.00;1.00;;;;;;2276478;61;1398;-88
2023/10/22 04:25:01;681228.00;2.27;1174.70;20958.00;0.07;36.93;;;;;14.60;1.00;;;;;;2276322;61;1316;-88
2023/10/22 04:27:32;343400.00;1.14;592.52;5312.00;0.02;9.83;;;;;14.10;1.00;;;;;;2276494;61;1017;-89
2023/10/22 04:29:57;454077.00;1.51;782.80;0.00;0.00;0.62;;;;;13.90;1.00;;;;;;2276382;61;1563;-88
2023/10/22 04:32:26;324150.00;1.08;559.43;0.00;0.00;0.62;;;;;13.80;1.00;;;;;;2276299;61;1625;-89
2023/10/22 04:34:53;479904.00;1.60;827.23;0.00;0.00;0.62;;;;;14.40;1.00;;;;;;2276365;61;2009;-88
2023/10/22 04:37:27;505193.00;1.68;870.76;45702.00;0.15;79.75;;;;;14.80;1.00;;;;;;2276367;61;1617;-87
2023/10/22 04:39:55;175960.00;0.59;304.53;14440.00;0.05;25.64;;;;;15.00;1.00;;;;;;2276386;61;1041;-88
2023/10/22 04:42:23;68911.00;0.23;119.88;0.00;0.00;0.62;;;;;14.60;1.00;;;;;;2276166;61;1495;-90
2023/10/22 04:44:51;167736.00;0.56;290.37;0.00;0.00;0.62;;;;;14.60;1.00;;;;;;2276299;61;1696;-88
2023/10/22 04:47:20;107254.00;0.36;186.09;0.00;0.00;0.62;;;;;14.40;1.00;;;;;;2276341;61;1532;-89
2023/10/22 04:49:49;77779.00;0.26;135.20;7399.00;0.02;13.44;;;;;14.60;1.00;;;;;;2276370;61;1121;-87
2023/10/22 04:52:22;48326.00;0.16;84.29;0.00;0.00;0.62;;;;;14.50;1.00;;;;;;2276254;61;1391;-87
2023/10/22 04:54:50;38601.00;0.13;67.47;0.00;0.00;0.62;;;;;14.80;1.00;;;;;;2276278;61;2014;-89
2023/10/22 04:57:17;0.00;0.00;0.62;0.00;0.00;0.62;;;;;15.00;1.00;;;;;;2276336;61;1005;-89
2023/10/22 04:59:45;50342.00;0.17;87.78;0.00;0.00;0.62;;;;;14.90;1.00;;;;;;2276331;61;1017;-88
2023/10/22 05:02:12;186692.00;0.62;323.01;0.00;0.00;0.62;;;;;15.10;1.00;;;;;;2276300;61;1380;-87
2023/10/22 05:04:38;158955.00;0.53;275.24;0.00;0.00;0.62;;;;;15.40;1.00;;;;;;2276343;61;910;-87
2023/10/22 05:07:07;9386.00;0.03;16.89;0.00;0.00;0.62;;;;;15.70;1.00;;;;;;2276331;61;997;-87
2023/10/22 05:09:34;146437.00;0.49;253.67;0.00;0.00;0.62;;;;;15.60;1.00;;;;;;2276272;61;1541;-87
2023/10/22 05:12:01;160236.00;0.53;277.45;0.00;0.00;0.62;;;;;15.00;1.00;;;;;;2276263;61;1565;-88
2023/10/22 05:14:30;78113.00;0.26;135.78;0.00;0.00;0.62;;;;;15.00;1.00;;;;;;2276321;61;1994;-88
2023/10/22 05:16:57;0.00;0.00;0.62;0.00;0.00;0.62;;;;;15.20;1.00;;;;;;2276300;61;1031;-87
2023/10/22 05:19:26;90986.00;0.30;158.01;0.00;0.00;0.62;;;;;15.00;1.00;;;;;;2276253;61;1105;-86
2023/10/22 05:21:53;125289.00;0.42;217.20;0.00;0.00;0.62;;;;;14.50;1.00;;;;;;2276188;61;1528;-89
2023/10/22 05:24:21;256324.00;0.85;442.83;6791.00;0.02;12.39;;;;;14.00;1.00;;;;;;2275966;61;1046;-89
2023/10/22 05:26:51;112167.00;0.37;194.57;0.00;0.00;0.62;;;;;13.60;1.00;;;;;;2276254;61;1443;-87
2023/10/22 05:29:21;190490.00;0.63;329.55;36369.00;0.12;63.61;;;;;14.10;1.00;;;;;;2276230;61;2185;-88
2023/10/22 05:31:54;0.00;0.00;0.62;0.00;0.00;0.62;;;;;14.40;1.00;;;;;;2276184;61;1221;-87
2023/10/22 05:34:21;17415.00;0.06;30.79;0.00;0.00;0.62;;;;;14.20;1.00;;;;;;2276169;61;2006;-88
2023/10/22 05:36:54;82558.00;0.28;143.46;0.00;0.00;0.62;;;;;14.00;1.00;;;;;;2276086;61;1690;-89
2023/10/22 05:39:22;67792.00;0.23;117.94;0.00;0.00;0.62;;;;;13.90;1.00;;;;;;2276188;61;1083;-89
2023/10/22 05:41:49;0.00;0.00;0.62;0.00;0.00;0.62;;;;;14.10;1.00;;;;;;2276169;61;1403;-88
2023/10/22 05:44:16;139160.00;0.46;241.12;0.00;0.00;0.62;;;;;14.20;1.00;;;;;;2276112;61;1481;-88
2023/10/22 05:46:44;111211.00;0.37;192.92;0.00;0.00;0.62;;;;;14.70;1.00;;;;;;2276182;61;997;-88
2023/10/22 05:49:11;29067.00;0.10;50.97;0.00;0.00;0.62;;;;;14.70;1.00;;;;;;2276174;61;955;-87
2023/10/22 05:51:41;32696.00;0.11;57.25;0.00;0.00;0.62;;;;;15.30;1.00;;;;;;2276194;61;1403;-88
2023/10/22 05:54:09;54592.00;0.18;95.13;0.00;0.00;0.62;;;;;15.30;1.00;;;;;;2276021;61;2009;-87
2023/10/22 05:56:38;191511.00;0.64;331.31;0.00;0.00;0.62;;;;;14.80;1.00;;;;;;2276133;61;1524;-87
2023/10/22 05:59:08;168544.00;0.56;291.76;0.00;0.00;0.62;;;;;14.50;1.00;;;;;;2276075;61;1442;-87
2023/10/22 06:01:38;119690.00;0.40;207.55;0.00;0.00;0.62;;;;;15.00;1.00;;;;;;2276059;61;1775;-86
2023/10/22 06:04:06;115129.00;0.38;199.68;0.00;0.00;0.62;;;;;15.10;1.00;;;;;;2276023;61;1624;-86
2023/10/22 06:06:33;25986.00;0.09;45.63;0.00;0.00;0.62;;;;;15.10;1.00;;;;;;2276126;61;2397;-85
2023/10/22 06:09:02;212508.00;0.71;367.45;0.00;0.00;0.62;;;;;15.10;1.00;;;;;;2276064;61;1693;-86
2023/10/22 06:11:29;80150.00;0.27;139.30;0.00;0.00;0.62;;;;;14.80;1.00;;;;;;2276119;61;1328;-86
2023/10/22 06:13:58;45234.00;0.15;78.94;0.00;0.00;0.62;;;;;14.90;1.00;;;;;;2276057;61;2008;-88
2023/10/22 06:16:25;0.00;0.00;0.62;0.00;0.00;0.62;;;;;15.10;1.00;;;;;;2276112;61;938;-87
2023/10/22 06:18:51;186719.00;0.62;323.06;0.00;0.00;0.62;;;;;15.50;1.00;;;;;;2276036;61;1528;-87
2023/10/22 06:21:22;160183.00;0.53;277.35;0.00;0.00;0.62;;;;;15.70;1.00;;;;;;2276120;61;1036;-87
2023/10/22 06:23:50;0.00;0.00;0.62;0.00;0.00;0.62;;;;;16.00;1.00;;;;;;2276086;61;1124;-86
2023/10/22 06:26:18;68232.00;0.23;118.71;0.00;0.00;0.62;;;;;16.10;1.00;;;;;;2276046;61;1115;-87
2023/10/22 06:28:45;226352.00;0.75;391.27;0.00;0.00;0.62;;;;;16.10;1.00;;;;;;2275978;61;1590;-88
2023/10/22 06:31:17;0.00;0.00;0.62;0.00;0.00;0.62;;;;;16.30;1.00;;;;;;2275994;61;1036;-87
2023/10/22 06:33:44;237749.00;0.79;410.88;0.00;0.00;0.62;;;;;16.40;1.00;;;;;;2275980;61;1329;-88
2023/10/22 06:36:13;174963.00;0.58;302.81;0.00;0.00;0.62;;;;;16.50;1.00;;;;;;2275998;61;1934;-87
2023/10/22 06:38:41;170530.00;0.57;295.18;0.00;0.00;0.62;;;;;16.30;1.00;;;;;;2276001;61;1526;-87
2023/10/22 06:41:19;0.00;0.00;0.62;0.00;0.00;0.62;;;;;16.50;1.00;;;;;;2276013;61;1122;-88
2023/10/22 06:43:53;122262.00;0.41;211.98;0.00;0.00;0.62;;;;;16.60;1.00;;;;;;2276077;61;1414;-86
2023/10/22 06:46:21;39934.00;0.13;69.77;0.00;0.00;0.62;;;;;16.70;1.00;;;;;;2275957;61;1448;-86
2023/10/22 06:48:49;175362.00;0.58;303.50;0.00;0.00;0.62;;;;;16.70;1.00;;;;;;2276401;61;961;-87
2023/10/22 06:51:17;304277.00;1.01;525.27;401.00;0.00;1.32;;;;;16.70;1.00;;;;;;2276621;61;2088;-87
2023/10/22 06:53:46;284230.00;0.95;490.81;63091.00;0.21;109.82;;;;;16.70;1.00;;;;;;2276677;61;1280;-87
2023/10/22 06:56:13;16780.00;0.06;29.69;0.00;0.00;0.62;;;;;16.60;1.00;;;;;;2276637;61;2010;-87
2023/10/22 06:58:41;301725.00;1.01;520.89;79484.00;0.26;138.15;;;;;16.80;1.00;;;;;;2276607;61;1519;-88
2023/10/22 07:01:09;296511.00;0.99;511.92;0.00;0.00;0.62;;;;;16.70;1.00;;;;;;2276611;61;1609;-87
2023/10/22 07:03:40;252397.00;0.84;436.07;25052.00;0.08;44.02;;;;;16.60;1.00;;;;;;2276561;61;1483;-87
2023/10/22 07:06:07;149115.00;0.50;258.28;0.00;0.00;0.62;;;;;16.80;1.00;;;;;;2276646;61;1536;-88
2023/10/22 07:08:34;12922.00;0.04;23.01;0.00;0.00;0.62;;;;;16.70;1.00;;;;;;2276576;61;1144;-87
2023/10/22 07:11:01;187940.00;0.63;325.16;40650.00;0.14;71.01;;;;;16.00;1.00;;;;;;2276632;61;1407;-87
2023/10/22 07:13:29;131064.00;0.44;227.16;0.00;0.00;0.62;;;;;15.60;1.00;;;;;;2276595;61;1363;-87
2023/10/22 07:15:56;10996.00;0.04;19.67;0.00;0.00;0.62;;;;;15.50;1.00;;;;;;2276552;61;2004;-88
2023/10/22 07:28:24;200312.00;0.67;346.46;0.00;0.00;0.62;;;;;17.30;1.00;;;;;;2278114;61;1408;-88
2023/10/22 07:30:52;148685.00;0.50;257.54;0.00;0.00;0.62;;;;;17.40;1.00;;;;;;2307379;40;3574;-87
2023/10/22 07:33:19;48468.00;0.16;84.54;0.00;0.00;0.62;;;;;16.60;1.00;;;;;;2276246;61;1713;-87
2023/10/22 07:35:53;17193.00;0.06;30.41;0.00;0.00;0.62;;;;;16.30;1.00;;;;;;2276560;61;1915;-86
2023/10/22 07:38:20;16784.00;0.06;29.70;0.00;0.00;0.62;;;;;16.00;1.00;;;;;;2276511;61;1210;-87
2023/10/22 07:40:50;105007.00;0.35;182.21;0.00;0.00;0.62;;;;;16.10;1.00;;;;;;2276496;61;918;-86
2023/10/22 07:43:17;0.00;0.00;0.62;0.00;0.00;0.62;;;;;16.10;1.00;;;;;;2276524;61;1361;-86
2023/10/22 07:45:45;76304.00;0.25;132.65;0.00;0.00;0.62;;;;;16.20;1.00;;;;;;2276567;61;1028;-88
2023/10/22 07:48:12;24248.00;0.08;42.63;0.00;0.00;0.62;;;;;16.60;1.00;;;;;;2276523;61;1186;-87
2023/10/22 07:50:39;5126.00;0.02;9.50;0.00;0.00;0.62;;;;;16.90;1.00;;;;;;2276575;61;1043;-85
2023/10/22 07:53:05;125500.00;0.42;217.57;0.00;0.00;0.62;;;;;17.20;1.00;;;;;;2276481;61;1424;-87
2023/10/22 07:55:33;62856.00;0.21;109.41;0.00;0.00;0.62;;;;;17.50;1.00;;;;;;2276486;61;1915;-87
2023/10/22 07:58:00;101026.00;0.34;175.34;28187.00;0.09;49.44;;;;;17.70;1.00;;;;;;2276438;61;1481;-88
2023/10/22 08:00:27;114495.00;0.38;198.59;0.00;0.00;0.62;;;;;17.80;1.00;;;;;;2276465;61;1032;-87
2023/10/22 08:02:56;0.00;0.00;0.62;0.00;0.00;0.62;;;;;17.80;1.00;;;;;;2276452;61;1574;-88
2023/10/22 08:05:23;0.00;0.00;0.62;0.00;0.00;0.62;;;;;17.70;1.00;;;;;;2276482;61;1285;-88
2023/10/22 08:07:50;112979.00;0.38;195.97;46614.00;0.16;81.33;;;;;17.70;1.00;;;;;;2276493;61;1038;-87
2023/10/22 08:10:17;144624.00;0.48;250.54;0.00;0.00;0.62;;;;;17.80;1.00;;;;;;2276458;61;1550;-85
2023/10/22 08:12:44;121064.00;0.40;209.92;40644.00;0.14;71.00;;;;;18.00;1.00;;;;;;2276399;61;1312;-86
2023/10/22 08:15:11;0.00;0.00;0.62;0.00;0.00;0.62;;;;;18.20;1.00;;;;;;2276402;61;1919;-85
2023/10/22 08:17:38;35363.00;0.12;61.86;0.00;0.00;0.62;;;;;17.90;1.00;;;;;;2276431;61;1000;-85
2023/10/22 08:20:08;89846.00;0.30;156.04;0.00;0.00;0.62;;;;;17.80;1.00;;;;;;2276380;61;1606;-87
2023/10/22 08:22:34;84903.00;0.28;147.51;0.00;0.00;0.62;;;;;17.90;1.00;;;;;;2276410;61;1355;-85
2023/10/22 08:25:01;229061.00;0.76;395.93;21693.00;0.07;38.20;;;;;17.60;1.00;;;;;;2276425;61;1091;-84
2023/10/22 08:27:28;214886.00;0.72;371.54;0.00;0.00;0.62;;;;;17.30;1.00;;;;;;2276328;61;1113;-87
2023/10/22 08:29:55;182275.00;0.61;315.41;0.00;0.00;0.62;;;;;17.10;1.00;;;;;;2276344;61;1062;-87
2023/10/22 08:32:22;0.00;0.00;0.62;0.00;0.00;0.62;;;;;17.00;1.00;;;;;;2276275;61;1554;-88
2023/10/22 08:34:49;0.00;0.00;0.62;0.00;0.00;0.62;;;;;17.10;1.00;;;;;;2274323;61;1988;-88
2023/10/22 08:37:18;526781.00;1.76;907.95;0.00;0.00;0.62;;;;;17.40;1.00;;;;;;2275729;61;1117;-88
2023/10/22 08:39:44;57477.00;0.19;100.12;0.00;0.00;0.62;;;;;17.60;1.00;;;;;;2276415;61;1177;-89
2023/10/22 08:42:16;133654.00;0.45;231.63;0.00;0.00;0.62;;;;;17.40;1.00;;;;;;2276294;61;1343;-88
2023/10/22 08:44:46;244148.00;0.81;421.89;43395.00;0.14;75.76;;;;;17.40;1.00;;;;;;2276458;61;1047;-88
2023/10/22 08:47:13;60380.00;0.20;105.13;0.00;0.00;0.62;;;;;17.80;1.00;;;;;;2276297;61;1098;-88
2023/10/22 08:49:40;0.00;0.00;0.62;0.00;0.00;0.62;;;;;17.80;1.00;;;;;;2276299;61;734;-88
2023/10/22 08:52:08;237889.00;0.79;411.12;8631.00;0.03;15.58;;;;;17.80;1.00;;;;;;2276168;61;1566;-88
2023/10/22 08:54:36;152251.00;0.51;263.69;0.00;0.00;0.62;;;;;17.90;1.00;;;;;;2276350;61;1047;-87
2023/10/22 08:57:03;186597.00;0.62;322.85;2730.00;0.01;5.35;;;;;17.70;1.00;;;;;;2276237;61;1938;-87
2023/10/22 08:59:34;106186.00;0.35;184.25;0.00;0.00;0.62;;;;;17.50;1.00;;;;;;2276208;61;1023;-87
2023/10/22 09:02:04;0.00;0.00;0.62;0.00;0.00;0.62;;;;;17.50;1.00;;;;;;2276143;61;2158;-87
2023/10/22 09:04:32;489069.00;1.63;843.01;146968.00;0.49;254.58;;;;;17.50;1.00;;;;;;2275874;61;1684;-88
2023/10/22 09:06:59;183152.00;0.61;316.92;27454.00;0.09;48.18;;;;;17.40;1.00;;;;;;2276349;61;1161;-86
2023/10/22 09:09:30;74436.00;0.25;129.43;0.00;0.00;0.62;;;;;17.40;1.00;;;;;;2276296;61;1032;-87
2023/10/22 09:11:59;57591.00;0.19;100.31;0.00;0.00;0.62;;;;;17.70;1.00;;;;;;2276081;61;1557;-87
2023/10/22 09:14:27;55596.00;0.19;96.86;0.00;0.00;0.62;;;;;17.60;1.00;;;;;;2276160;61;1233;-87
2023/10/22 09:16:54;178885.00;0.60;309.57;0.00;0.00;0.62;;;;;17.80;1.00;;;;;;2276151;61;2004;-86
2023/10/22 09:19:37;346570.00;1.16;597.97;0.00;0.00;0.62;;;;;18.00;1.00;;;;;;2276207;61;1415;-87
2023/10/22 09:22:05;98369.00;0.33;170.76;29516.00;0.10;51.75;;;;;17.80;1.00;;;;;;2276134;61;1419;-87
2023/10/22 09:24:34;155997.00;0.52;270.14;0.00;0.00;0.62;;;;;18.00;1.00;;;;;;2276149;61;1409;-88
2023/10/22 09:27:03;105227.00;0.35;182.59;0.00;0.00;0.62;;;;;18.00;1.00;;;;;;2276191;61;1527;-85
2023/10/22 09:29:31;146014.00;0.49;252.94;0.00;0.00;0.62;;;;;17.80;1.00;;;;;;2276171;61;1714;-88
2023/10/22 09:31:59;19493.00;0.06;34.39;0.00;0.00;0.62;;;;;17.80;1.00;;;;;;2276114;61;1284;-87
2023/10/22 09:34:28;52722.00;0.18;91.89;0.00;0.00;0.62;;;;;18.00;1.00;;;;;;2276213;61;1448;-88
2023/10/22 09:36:55;217074.00;0.72;375.31;51400.00;0.17;89.61;;;;;18.10;1.00;;;;;;2276134;61;2038;-87
2023/10/22 09:39:42;108765.00;0.36;188.70;0.00;0.00;0.62;;;;;17.90;1.00;;;;;;2276067;61;1537;-87
2023/10/22 09:42:13;197504.00;0.66;341.63;0.00;0.00;0.62;;;;;17.70;1.00;;;;;;2275816;61;1713;-87
2023/10/22 09:44:43;499889.00;1.67;861.63;0.00;0.00;0.62;;;;;17.60;1.00;;;;;;2275732;61;1503;-88
2023/10/22 09:47:13;17351.00;0.06;30.68;0.00;0.00;0.62;;;;;17.70;1.00;;;;;;2276110;61;991;-83
2023/10/22 09:49:46;203299.00;0.68;351.60;0.00;0.00;0.62;;;;;17.70;1.00;;;;;;2276137;61;1407;-85
2023/10/22 09:52:16;91546.00;0.31;158.98;0.00;0.00;0.62;;;;;17.60;1.00;;;;;;2276145;61;1339;-86
2023/10/22 09:54:44;194235.00;0.65;336.00;0.00;0.00;0.62;;;;;17.90;1.00;;;;;;2276053;61;1525;-86
2023/10/22 09:57:15;39187.00;0.13;68.48;0.00;0.00;0.62;;;;;17.90;1.00;;;;;;2275939;61;2228;-85
2023/10/22 09:59:42;236621.00;0.79;408.94;31753.00;0.11;55.62;;;;;17.80;1.00;;;;;;2275996;61;1101;-87
2023/10/22 10:02:17;97469.00;0.32;169.20;0.00;0.00;0.62;;;;;17.80;1.00;;;;;;2275885;61;1526;-86
2023/10/22 10:04:48;314641.00;1.05;543.09;31420.00;0.10;55.04;;;;;18.20;1.00;;;;;;2275970;61;1614;-87
2023/10/22 10:07:17;150334.00;0.50;260.38;0.00;0.00;0.62;;;;;18.30;1.00;;;;;;2276040;61;1608;-83
2023/10/22 10:09:46;7453.00;0.02;13.54;0.00;0.00;0.62;;;;;18.50;1.00;;;;;;2276086;61;1419;-85
2023/10/22 10:12:16;179825.00;0.60;311.19;87776.00;0.29;152.47;;;;;18.80;1.00;;;;;;2275967;61;1348;-86
2023/10/22 10:14:49;31896.00;0.11;55.86;0.00;0.00;0.62;;;;;18.80;1.00;;;;;;2275966;61;1603;-85
2023/10/22 10:17:24;77872.00;0.26;135.36;0.00;0.00;0.62;;;;;19.00;1.00;;;;;;2276058;61;2001;-87
2023/10/22 10:19:53;235390.00;0.78;406.82;0.00;0.00;0.62;;;;;18.80;1.00;;;;;;2275595;61;1005;-87
2023/10/22 10:22:40;605979.00;2.02;1044.54;16672.00;0.06;29.51;;;;;18.60;1.00;;;;;;2275002;61;1495;-86
2023/10/22 10:25:32;1180909.00;3.94;2055.74;0.00;0.00;0.62;;;;;18.10;1.00;;;;;;2275005;61;1027;-87
2023/10/22 10:28:03;748826.00;2.50;1292.02;0.00;0.00;0.62;;;;;18.00;1.00;;;;;;2275377;61;1218;-87
2023/10/22 10:30:31;1619571.00;5.40;2870.20;0.00;0.00;0.62;;;;;17.70;1.00;;;;;;2274171;61;1068;-86
2023/10/22 10:33:01;1721117.00;5.74;3066.53;0.00;0.00;0.62;;;;;18.10;1.00;;;;;;2273446;61;1286;-87
2023/10/22 10:35:29;2398349.00;7.99;4476.93;0.00;0.00;0.62;;;;;18.60;1.00;;;;;;2273296;61;2004;-87
2023/10/22 10:38:21;1856402.00;6.19;3333.52;0.00;0.00;0.62;;;;;19.00;1.00;;;;;;2274028;61;1616;-86
2023/10/22 10:40:51;946555.00;3.16;1638.04;0.00;0.00;0.62;;;;;19.20;1.00;;;;;;2274763;61;1057;-85
2023/10/22 10:43:20;1882323.00;6.27;3385.43;0.00;0.00;0.62;;;;;18.60;1.00;;;;;;2274274;61;1302;-85
2023/10/22 10:46:24;1536192.00;5.12;2711.41;0.00;0.00;0.62;;;;;18.40;1.00;;;;;;2274818;61;1114;-86
2023/10/22 10:48:52;704873.00;2.35;1215.69;0.00;0.00;0.62;;;;;18.70;1.00;;;;;;2275697;61;1023;-85
2023/10/22 10:51:20;505435.00;1.68;871.18;62809.00;0.21;109.33;;;;;19.50;1.00;;;;;;2276337;61;1124;-87
2023/10/22 10:54:18;230374.00;0.77;398.19;385.00;0.00;1.29;;;;;19.10;1.00;;;;;;2276116;61;1664;-86
2023/10/22 10:56:47;581960.00;1.94;1003.08;0.00;0.00;0.62;;;;;19.10;1.00;;;;;;2275873;61;1985;-85
2023/10/22 10:59:27;492335.00;1.64;848.63;0.00;0.00;0.62;;;;;19.40;1.00;;;;;;2275242;61;1445;-86
2023/10/22 11:02:08;322018.00;1.07;555.77;0.00;0.00;0.62;;;;;19.60;1.00;;;;;;2276442;61;1497;-85
2023/10/22 11:04:36;270652.00;0.90;467.46;81228.00;0.27;141.16;;;;;19.60;1.00;;;;;;2276709;61;1002;-87
2023/10/22 11:07:04;327247.00;1.09;564.75;99004.00;0.33;171.85;;;;;19.90;1.00;;;;;;2276663;61;1111;-87
2023/10/22 11:09:33;77981.00;0.26;135.55;0.00;0.00;0.62;;;;;19.60;1.00;;;;;;2276723;61;1100;-86
2023/10/22 11:12:03;150999.00;0.50;261.53;60963.00;0.20;106.14;;;;;19.30;1.00;;;;;;2276601;61;1644;-85
2023/10/22 11:14:32;0.00;0.00;0.62;0.00;0.00;0.62;;;;;19.10;1.00;;;;;;2276675;61;1933;-84
2023/10/22 11:16:59;24774.00;0.08;43.54;0.00;0.00;0.62;;;;;19.10;1.00;;;;;;2276631;61;2000;-86
2023/10/22 11:19:28;243594.00;0.81;420.93;25898.00;0.09;45.48;;;;;19.60;1.00;;;;;;2276693;61;1044;-86
2023/10/22 11:21:55;115738.00;0.39;200.73;0.00;0.00;0.62;;;;;19.70;1.00;;;;;;2276572;61;1590;-87
2023/10/22 11:24:27;520106.00;1.73;896.45;152775.00;0.51;264.59;;;;;19.40;1.00;;;;;;2276576;61;1595;-87
2023/10/22 11:26:55;108365.00;0.36;188.01;0.00;0.00;0.62;;;;;19.70;1.00;;;;;;2276626;61;986;-86
2023/10/22 11:29:21;0.00;0.00;0.62;0.00;0.00;0.62;;;;;19.60;1.00;;;;;;2276620;61;1122;-87
2023/10/22 11:31:58;138585.00;0.46;240.13;0.00;0.00;0.62;;;;;19.50;1.00;;;;;;2275976;61;1238;-85
2023/10/22 11:34:25;743883.00;2.48;1283.42;0.00;0.00;0.62;;;;;19.40;1.00;;;;;;2275661;61;1693;-85
2023/10/22 11:36:59;263020.00;0.88;454.34;0.00;0.00;0.62;;;;;19.70;1.00;;;;;;2275837;61;1996;-85
2023/10/22 11:39:34;636948.00;2.12;1098.06;0.00;0.00;0.62;;;;;20.10;1.00;;;;;;2276016;61;1102;-87
2023/10/22 11:42:03;583306.00;1.94;1005.40;78652.00;0.26;136.71;;;;;20.10;1.00;;;;;;2275711;61;1345;-87
2023/10/22 11:44:35;764677.00;2.55;1319.59;74512.00;0.25;129.56;;;;;20.40;1.00;;;;;;2275823;61;1568;-86
2023/10/22 11:47:23;549159.00;1.83;946.51;76866.00;0.26;133.62;;;;;20.90;1.00;;;;;;2276195;61;1634;-86
2023/10/22 11:49:51;788616.00;2.63;1361.28;77825.00;0.26;135.28;;;;;20.50;1.00;;;;;;2276560;61;1034;-87
2023/10/22 11:52:19;1091285.00;3.64;1894.85;62771.00;0.21;109.27;;;;;20.60;1.00;;;;;;2276480;61;1596;-87
2023/10/22 11:54:49;521552.00;1.74;898.94;77098.00;0.26;134.02;;;;;20.40;1.00;;;;;;2276550;61;1119;-87
2023/10/22 11:57:17;830928.00;2.77;1435.12;110053.00;0.37;190.92;;;;;20.10;1.00;;;;;;2276457;61;1919;-86
2023/10/22 11:59:44;1136862.00;3.79;1976.47;196318.00;0.65;339.59;;;;;19.70;1.00;;;;;;2276421;61;1673;-84
2023/10/22 12:02:12;946373.00;3.15;1637.72;85811.00;0.29;149.07;;;;;19.80;1.00;;;;;;2276514;61;1314;-87
2023/10/22 12:04:39;119383144.00;397.94;68925072.00;118377896.00;394.59;67197040.00;;;;;20.10;1.00;;;;;;2276532;61;1137;-86
2023/10/22 12:07:09;473413.00;1.58;816.06;80797.00;0.27;140.41;;;;;20.10;1.00;;;;;;2276414;61;1024;-86
2023/10/22 12:09:36;816446.00;2.72;1409.82;123294.00;0.41;213.76;;;;;20.20;1.00;;;;;;2276269;61;1480;-84
2023/10/22 12:12:05;621048.00;2.07;1070.58;101115.00;0.34;175.50;;;;;20.50;1.00;;;;;;2276378;61;1551;-87
2023/10/22 12:14:36;119473320.00;398.24;69081512.00;106635.00;0.36;185.02;;;;;20.40;1.00;;;;;;2276458;61;1115;-87